createdAt,value
2023-01-18T00:01:06.533Z,98628.94
2023-01-18T00:03:38.423Z,98657.63
2023-01-18T00:06:10.049Z,98513.03
2023-01-18T00:08:41.293Z,98668.69
2023-01-18T00:11:15.534Z,98611.78
2023-01-18T00:13:46.593Z,98681.59
2023-01-18T00:16:18.788Z,98634.81
2023-01-18T00:18:54.987Z,98670.50
2023-01-18T00:21:24.547Z,98535.34
2023-01-18T00:23:54.475Z,98642.81
2023-01-18T00:26:24.904Z,98677.13
2023-01-18T00:28:53.903Z,98630.66
2023-01-18T00:31:23.092Z,98592.06
2023-01-18T00:33:52.372Z,98680.75
2023-01-18T00:36:22.199Z,98686.88
2023-01-18T00:38:52.992Z,98682.88
2023-01-18T00:41:24.343Z,98676.41
2023-01-18T00:43:53.355Z,98508.47
2023-01-18T00:46:23.672Z,98669.50
2023-01-18T00:48:54.768Z,98664.88
2023-01-18T00:51:26.833Z,98654.94
2023-01-18T00:53:55.759Z,98656.09
2023-01-18T00:56:26.018Z,98655.75
2023-01-18T00:58:59.104Z,98594.75
2023-01-18T01:01:30.114Z,98642.50
2023-01-18T01:04:16.435Z,98497.22
2023-01-18T01:06:46.739Z,98581.06
2023-01-18T01:09:19.534Z,98520.59
2023-01-18T01:12:07.987Z,98641.75
2023-01-18T01:14:56.524Z,98573.13
2023-01-18T01:17:45.235Z,98404.69
2023-01-18T01:20:33.937Z,98535.38
2023-01-18T01:23:28.407Z,98660.25
2023-01-18T01:26:11.218Z,98672.81
2023-01-18T01:28:43.675Z,98690.03
2023-01-18T01:31:14.696Z,98535.63
2023-01-18T01:33:46.326Z,98676.47
2023-01-18T01:36:22.387Z,98519.09
2023-01-18T01:38:51.334Z,98691.69
2023-01-18T01:41:25.782Z,98704.25
2023-01-18T01:43:58.465Z,98720.81
2023-01-18T01:46:36.984Z,98681.25
2023-01-18T01:49:11.558Z,98497.56
2023-01-18T01:51:46.460Z,98696.00
2023-01-18T01:54:19.952Z,98699.50
2023-01-18T01:56:54.817Z,98549.09
2023-01-18T01:59:26.024Z,98599.78
2023-01-18T02:01:55.149Z,98455.84
2023-01-18T02:04:25.297Z,98249.00
2023-01-18T02:06:54.424Z,98611.56
2023-01-18T02:09:25.042Z,98622.66
2023-01-18T02:11:55.976Z,98462.25
2023-01-18T02:14:29.103Z,98562.97
2023-01-18T02:17:09.280Z,98701.44
2023-01-18T02:20:04.927Z,98692.38
2023-01-18T02:22:56.606Z,98662.13
2023-01-18T02:25:51.551Z,98721.31
2023-01-18T02:28:28.524Z,98698.97
2023-01-18T02:31:04.703Z,98689.34
2023-01-18T02:33:40.389Z,98643.22
2023-01-18T02:36:09.546Z,98704.91
2023-01-18T02:38:44.640Z,98705.59
2023-01-18T02:41:20.601Z,98709.91
2023-01-18T02:44:13.880Z,98711.53
2023-01-18T02:46:45.059Z,98707.22
2023-01-18T02:49:22.052Z,98668.38
2023-01-18T02:51:52.170Z,98680.09
2023-01-18T02:54:24.827Z,98725.56
2023-01-18T02:56:55.692Z,98724.75
2023-01-18T02:59:36.998Z,98600.47
2023-01-18T03:02:12.990Z,98673.75
2023-01-18T03:04:45.343Z,98720.16
2023-01-18T03:07:22.411Z,98717.69
2023-01-18T03:09:54.489Z,98538.81
2023-01-18T03:12:28.856Z,98634.53
2023-01-18T03:15:09.596Z,98712.97
2023-01-18T03:17:44.184Z,98700.47
2023-01-18T03:20:18.863Z,98679.03
2023-01-18T03:23:10.428Z,98724.16
2023-01-18T03:25:43.091Z,98738.00
2023-01-18T03:28:34.140Z,98730.94
2023-01-18T03:31:26.375Z,98503.03
2023-01-18T03:34:50.617Z,98610.03
2023-01-18T03:45:17.287Z,98488.88
2023-01-18T03:47:51.429Z,98744.16
2023-01-18T03:50:21.824Z,98761.38
2023-01-18T03:52:59.289Z,98683.53
2023-01-18T03:55:40.781Z,98752.94
2023-01-18T03:58:12.655Z,98734.44
2023-01-18T04:00:42.624Z,98753.13
2023-01-18T04:03:16.806Z,98353.31
2023-01-18T04:05:45.926Z,98675.47
2023-01-18T04:12:04.055Z,98763.78
2023-01-18T04:19:33.830Z,98770.53
2023-01-18T04:22:09.928Z,98768.63
2023-01-18T04:24:41.684Z,98709.91
2023-01-18T04:27:18.525Z,98726.94
2023-01-18T04:29:48.431Z,98784.66
2023-01-18T04:32:20.118Z,98787.28
2023-01-18T04:34:51.477Z,98641.91
2023-01-18T04:37:20.330Z,98725.88
2023-01-18T04:39:50.279Z,98797.88
2023-01-18T04:42:20.158Z,98612.69
2023-01-18T04:44:50.049Z,98732.41
2023-01-18T04:47:20.114Z,98773.19
2023-01-18T04:49:50.583Z,98797.88
2023-01-18T04:52:20.439Z,98704.28
2023-01-18T04:54:49.337Z,98804.94
2023-01-18T04:57:18.261Z,98834.78
2023-01-18T05:03:59.513Z,98736.84
2023-01-18T05:06:29.878Z,98817.97
2023-01-18T05:08:58.776Z,98741.28
2023-01-18T05:11:28.946Z,98838.13
2023-01-18T05:13:58.846Z,98836.31
2023-01-18T05:16:28.144Z,98841.97
2023-01-18T05:18:57.304Z,98850.72
2023-01-18T05:21:26.118Z,98774.84
2023-01-18T05:23:56.529Z,98849.47
2023-01-18T05:26:26.085Z,98682.50
2023-01-18T05:28:58.804Z,98801.63
2023-01-18T05:31:27.855Z,98855.72
2023-01-18T05:33:58.143Z,98859.63
2023-01-18T05:36:26.897Z,98857.25
2023-01-18T05:38:57.542Z,98852.69
2023-01-18T05:41:26.500Z,98641.63
2023-01-18T05:43:55.337Z,98857.41
2023-01-18T05:46:24.491Z,98869.06
2023-01-18T05:48:57.104Z,98868.47
2023-01-18T05:51:26.859Z,98871.41
2023-01-18T05:53:57.163Z,98612.09
2023-01-18T05:56:26.109Z,98874.31
2023-01-18T05:58:55.091Z,98827.00
2023-01-18T06:01:25.075Z,98880.69
2023-01-18T06:03:54.061Z,98881.53
2023-01-18T06:06:22.995Z,98845.19
2023-01-18T06:08:54.280Z,98906.25
2023-01-18T06:11:25.747Z,98910.53
2023-01-18T06:13:56.652Z,98794.03
2023-01-18T06:16:25.939Z,98910.25
2023-01-18T06:18:55.785Z,98913.69
2023-01-18T06:21:24.657Z,98887.03
2023-01-18T06:23:53.581Z,98927.84
2023-01-18T06:26:24.112Z,98918.97
2023-01-18T06:28:54.725Z,98558.25
2023-01-18T06:31:23.601Z,98926.47
2023-01-18T06:33:53.538Z,98928.56
2023-01-18T06:36:22.350Z,98910.50
2023-01-18T06:38:52.351Z,98951.47
2023-01-18T06:41:22.184Z,98939.75
2023-01-18T06:43:53.747Z,98972.75
2023-01-18T06:46:27.502Z,98854.97
2023-01-18T06:48:57.636Z,98927.56
2023-01-18T06:51:28.651Z,98989.22
2023-01-18T06:53:58.656Z,98960.59
2023-01-18T06:56:38.774Z,98984.13
2023-01-18T06:59:10.678Z,98987.59
2023-01-18T07:01:39.698Z,99009.09
2023-01-18T07:04:09.944Z,98989.34
2023-01-18T07:06:45.292Z,98862.13
2023-01-18T07:09:16.301Z,98990.53
2023-01-18T07:11:56.432Z,99017.94
2023-01-18T07:14:27.813Z,98995.28
2023-01-18T07:16:58.680Z,99010.69
2023-01-18T07:19:27.847Z,99014.00
2023-01-18T07:22:02.991Z,99014.38
2023-01-18T07:24:31.968Z,98990.97
2023-01-18T07:27:03.534Z,98865.66
2023-01-18T07:29:34.939Z,98674.44
2023-01-18T07:32:05.187Z,99041.75
2023-01-18T07:34:36.316Z,98908.75
2023-01-18T07:37:10.326Z,98969.97
2023-01-18T07:39:40.260Z,99046.88
2023-01-18T07:42:10.084Z,99050.09
2023-01-18T07:44:41.438Z,99046.75
2023-01-18T07:47:11.367Z,99005.09
2023-01-18T07:49:41.577Z,98914.78
2023-01-18T07:52:11.367Z,98836.78
2023-01-18T07:54:40.654Z,99055.59
2023-01-18T07:57:10.639Z,98810.47
2023-01-18T07:59:43.018Z,99077.97
2023-01-18T08:02:14.664Z,99065.59
2023-01-18T08:04:45.902Z,98943.09
2023-01-18T08:07:15.968Z,99091.19
2023-01-18T08:09:46.169Z,99068.25
2023-01-18T08:12:18.943Z,99065.66
2023-01-18T08:14:50.395Z,99109.63
2023-01-18T08:17:20.498Z,99094.06
2023-01-18T08:19:52.741Z,98997.28
2023-01-18T08:22:21.685Z,99123.94
2023-01-18T08:24:51.569Z,99121.09
2023-01-18T08:27:22.838Z,99041.63
2023-01-18T08:29:55.356Z,99119.88
2023-01-18T08:32:24.952Z,99128.44
2023-01-18T08:34:54.817Z,99140.41
2023-01-18T08:37:25.928Z,99130.91
2023-01-18T08:39:56.130Z,99109.63
2023-01-18T08:42:26.110Z,98993.16
2023-01-18T08:44:56.742Z,98920.53
2023-01-18T08:47:32.772Z,99150.28
2023-01-18T08:50:02.791Z,99136.97
2023-01-18T08:52:36.762Z,99174.84
2023-01-18T08:55:08.946Z,99137.00
2023-01-18T08:57:40.405Z,99183.69
2023-01-18T09:00:13.372Z,99191.53
2023-01-18T09:02:42.591Z,99166.88
2023-01-18T09:05:12.727Z,99128.41
2023-01-18T09:07:41.899Z,99202.94
2023-01-18T09:10:12.422Z,99128.53
2023-01-18T09:12:41.653Z,99220.84
2023-01-18T09:15:12.295Z,99227.25
2023-01-18T09:17:41.335Z,99240.63
2023-01-18T09:20:12.334Z,99119.31
2023-01-18T09:22:43.116Z,99214.78
2023-01-18T09:25:12.270Z,99149.94
2023-01-18T09:27:41.136Z,99268.16
2023-01-18T09:30:12.988Z,99191.22
2023-01-18T09:32:42.969Z,99276.16
2023-01-18T09:35:12.091Z,99278.88
2023-01-18T09:37:40.946Z,99293.88
2023-01-18T09:40:17.328Z,99292.03
2023-01-18T09:42:48.871Z,99303.03
2023-01-18T09:45:31.407Z,99157.03
2023-01-18T09:48:04.207Z,99313.56
2023-01-18T09:50:43.165Z,99326.38
2023-01-18T09:53:25.124Z,99327.56
2023-01-18T09:55:58.357Z,99339.72
2023-01-18T09:58:42.902Z,99342.88
2023-01-18T10:01:17.722Z,99301.09
2023-01-18T10:03:51.986Z,99215.56
2023-01-18T10:06:25.793Z,99351.53
2023-01-18T10:09:01.354Z,99359.19
2023-01-18T10:11:37.020Z,99362.69
2023-01-18T10:14:10.855Z,99363.00
2023-01-18T10:16:41.954Z,99367.81
2023-01-18T10:19:17.190Z,99370.13
2023-01-18T10:21:54.314Z,99179.25
2023-01-18T10:24:32.302Z,99374.59
2023-01-18T10:27:18.144Z,99382.09
2023-01-18T10:30:01.815Z,99380.78
2023-01-18T10:32:36.537Z,99392.78
2023-01-18T10:35:16.688Z,99397.94
2023-01-18T10:37:46.906Z,99405.47
2023-01-18T10:40:17.033Z,99405.63
2023-01-18T10:42:47.659Z,99414.81
2023-01-18T10:45:21.881Z,99408.81
2023-01-18T10:47:53.455Z,99405.97
2023-01-18T10:50:24.872Z,99299.09
2023-01-18T10:52:53.875Z,99395.81
2023-01-18T10:55:23.175Z,99390.81
2023-01-18T10:57:54.442Z,99399.44
2023-01-18T11:00:27.896Z,99400.44
2023-01-18T11:03:00.302Z,99399.63
2023-01-18T11:05:32.434Z,99410.31
2023-01-18T11:08:22.124Z,99406.31
2023-01-18T11:11:00.898Z,99417.81
2023-01-18T11:13:34.168Z,99382.16
2023-01-18T11:16:15.916Z,99413.16
2023-01-18T11:19:03.948Z,99411.81
2023-01-18T11:21:46.269Z,99409.81
2023-01-18T11:24:18.868Z,99409.97
2023-01-18T11:27:02.429Z,99365.69
2023-01-18T11:29:34.628Z,99256.66
2023-01-18T11:32:05.541Z,99404.81
2023-01-18T11:34:38.525Z,99399.81
2023-01-18T11:37:31.115Z,99411.47
2023-01-18T11:40:00.715Z,99411.16
2023-01-18T11:42:32.247Z,99412.16
2023-01-18T11:45:22.629Z,99410.16
2023-01-18T11:47:59.249Z,99427.28
2023-01-18T11:50:36.138Z,99365.50
2023-01-18T11:53:15.394Z,99412.47
2023-01-18T11:55:56.380Z,99422.16
2023-01-18T12:03:45.024Z,99437.44
2023-01-18T12:06:27.481Z,99425.31
2023-01-18T12:09:14.766Z,99421.81
2023-01-18T12:12:17.358Z,99377.00
2023-01-18T12:15:16.979Z,99430.94
2023-01-18T12:18:12.489Z,99416.59
2023-01-18T12:20:54.026Z,99423.41
2023-01-18T12:23:46.672Z,99329.06
2023-01-18T12:26:32.260Z,99435.53
2023-01-18T12:29:18.060Z,99423.53
2023-01-18T12:31:58.797Z,99388.03
2023-01-18T12:34:36.293Z,99433.03
2023-01-18T12:37:23.423Z,99429.53
2023-01-18T12:40:06.679Z,99430.53
2023-01-18T12:42:47.931Z,99349.25
2023-01-18T12:45:29.074Z,99223.78
2023-01-18T12:48:11.225Z,99344.91
2023-01-18T12:50:43.753Z,99401.91
2023-01-18T12:53:16.709Z,99396.22
2023-01-18T12:55:51.418Z,99436.53
2023-01-18T12:58:23.932Z,99438.50
2023-01-18T13:00:59.943Z,99242.03
2023-01-18T13:03:36.905Z,99423.88
2023-01-18T13:06:06.096Z,99429.34
2023-01-18T13:08:44.437Z,99406.19
2023-01-18T13:11:18.705Z,99349.00
2023-01-18T13:13:51.983Z,99398.72
2023-01-18T13:16:38.038Z,99441.69
2023-01-18T13:19:10.702Z,99381.34
2023-01-18T13:21:49.895Z,99441.38
2023-01-18T13:24:31.381Z,99444.03
2023-01-18T13:27:13.530Z,99440.72
2023-01-18T13:29:44.087Z,99442.53
2023-01-18T13:32:30.542Z,99437.38
2023-01-18T13:35:19.013Z,99369.38
2023-01-18T13:46:05.963Z,99162.66
2023-01-18T13:48:47.576Z,99450.25
2023-01-18T13:51:52.289Z,99473.56
2023-01-18T13:55:05.609Z,99474.66
2023-01-18T13:57:36.774Z,99482.97
2023-01-18T14:00:07.742Z,99488.28
2023-01-18T14:02:43.657Z,99482.28
2023-01-18T14:05:25.072Z,99492.41
2023-01-18T14:07:57.690Z,99499.38
2023-01-18T14:10:31.974Z,99455.34
2023-01-18T14:13:03.147Z,99369.56
2023-01-18T14:15:48.538Z,99505.84
2023-01-18T14:18:25.203Z,99515.72
2023-01-18T14:21:11.333Z,99519.50
2023-01-18T14:24:02.445Z,99531.16
2023-01-18T14:26:34.715Z,99467.50
2023-01-18T14:29:07.395Z,99547.06
2023-01-18T14:31:40.326Z,99546.25
2023-01-18T14:34:38.188Z,99476.53
2023-01-18T14:37:29.042Z,99565.50
2023-01-18T14:40:15.359Z,99132.75
2023-01-18T14:42:50.458Z,99571.75
2023-01-18T14:45:27.636Z,99503.19
2023-01-18T14:47:57.654Z,99579.19
2023-01-18T14:50:33.613Z,99589.88
2023-01-18T14:53:03.223Z,99597.41
2023-01-18T14:55:33.979Z,99589.19
2023-01-18T14:58:05.895Z,99330.84
2023-01-18T15:00:34.943Z,99609.13
2023-01-18T15:03:03.909Z,99599.94
2023-01-18T15:05:34.406Z,99597.47
2023-01-18T15:08:03.412Z,99603.09
2023-01-18T15:10:35.641Z,99599.25
2023-01-18T15:13:06.391Z,99598.44
2023-01-18T15:15:41.068Z,99620.53
2023-01-18T15:18:17.194Z,99629.66
2023-01-18T15:20:57.141Z,99633.56
2023-01-18T15:23:28.237Z,99634.69
2023-01-18T15:25:59.135Z,99620.94
2023-01-18T15:28:34.391Z,99640.59
2023-01-18T15:31:13.144Z,99653.38
2023-01-18T15:33:42.558Z,99427.69
2023-01-18T15:36:14.440Z,99662.34
2023-01-18T15:38:44.093Z,99641.22
2023-01-18T15:41:16.101Z,99663.13
2023-01-18T15:43:49.112Z,99675.41
2023-01-18T15:46:19.511Z,99678.50
2023-01-18T15:48:51.815Z,99677.94
2023-01-18T15:51:42.897Z,99684.66
2023-01-18T15:54:19.339Z,99674.75
2023-01-18T15:56:49.592Z,99679.81
2023-01-18T15:59:23.302Z,99689.03
2023-01-18T16:02:19.391Z,99698.81
2023-01-18T16:04:48.602Z,99674.94
2023-01-18T16:07:43.399Z,99707.75
2023-01-18T16:10:30.666Z,99669.50
2023-01-18T16:13:33.657Z,99719.19
2023-01-18T16:16:14.503Z,99721.59
2023-01-18T16:18:46.517Z,99610.63
2023-01-18T16:21:22.406Z,99696.03
2023-01-18T16:23:54.229Z,99622.63
2023-01-18T16:26:29.042Z,99610.16
2023-01-18T16:29:07.598Z,99651.47
2023-01-18T16:31:37.483Z,99762.31
2023-01-18T16:34:20.495Z,99762.72
2023-01-18T16:36:49.941Z,99772.44
2023-01-18T16:39:20.692Z,99780.00
2023-01-18T16:41:54.915Z,99783.88
2023-01-18T16:44:24.063Z,99764.00
2023-01-18T16:46:54.066Z,99772.09
2023-01-18T16:49:23.009Z,99794.63
2023-01-18T16:51:51.940Z,99575.97
2023-01-18T16:54:23.681Z,99755.25
2023-01-18T16:56:52.691Z,99777.03
2023-01-18T16:59:23.536Z,99819.00
2023-01-18T17:01:53.158Z,99692.09
2023-01-18T17:04:22.130Z,99788.16
2023-01-18T17:06:51.102Z,99811.91
2023-01-18T17:09:28.108Z,99797.88
2023-01-18T17:12:00.032Z,99847.53
2023-01-18T17:14:29.054Z,99485.59
2023-01-18T17:16:58.048Z,99846.28
2023-01-18T17:19:29.205Z,99782.25
2023-01-18T17:21:59.140Z,99872.31
2023-01-18T17:24:32.929Z,99839.31
2023-01-18T17:27:10.477Z,99867.88
2023-01-18T17:29:39.683Z,99746.03
2023-01-18T17:32:08.629Z,99900.94
2023-01-18T17:34:37.677Z,99865.31
2023-01-18T17:37:10.999Z,99905.81
2023-01-18T17:39:49.799Z,99690.22
2023-01-18T17:42:30.233Z,99652.53
2023-01-18T17:45:04.497Z,99807.28
2023-01-18T17:47:39.129Z,99931.41
2023-01-18T17:50:11.661Z,99930.94
2023-01-18T17:52:43.781Z,99774.63
2023-01-18T17:55:17.900Z,99957.25
2023-01-18T17:57:50.097Z,99904.38
2023-01-18T18:00:21.934Z,99963.13
2023-01-18T18:02:57.237Z,99965.75
2023-01-18T18:05:26.897Z,99973.22
2023-01-18T18:07:57.019Z,99982.00
2023-01-18T18:10:29.244Z,99990.66
2023-01-18T18:12:59.977Z,99922.25
2023-01-18T18:15:30.357Z,100007.31
2023-01-18T18:18:01.042Z,99981.00
2023-01-18T18:20:32.330Z,99985.69
2023-01-18T18:23:02.354Z,99857.38
2023-01-18T18:25:34.823Z,100013.22
2023-01-18T18:28:05.009Z,99989.28
2023-01-18T18:30:35.927Z,100034.47
2023-01-18T18:33:04.888Z,100051.66
2023-01-18T18:35:35.012Z,100054.91
2023-01-18T18:38:03.963Z,100064.28
2023-01-18T18:40:35.436Z,100067.28
2023-01-18T18:43:05.554Z,100081.34
2023-01-18T18:45:36.018Z,100083.63
2023-01-18T18:48:06.530Z,100088.81
2023-01-18T18:50:35.739Z,100102.13
2023-01-18T18:53:09.657Z,99958.91
2023-01-18T18:55:41.293Z,100102.25
2023-01-18T18:58:17.459Z,99937.97
2023-01-18T19:00:47.601Z,99939.28
2023-01-18T19:03:17.676Z,100112.56
2023-01-18T19:05:46.840Z,100072.34
2023-01-18T19:08:15.699Z,100051.44
2023-01-18T19:10:50.034Z,100044.81
2023-01-18T19:13:21.119Z,100052.22
2023-01-18T19:15:53.337Z,100143.50
2023-01-18T19:18:30.595Z,99891.38
2023-01-18T19:21:01.861Z,100021.97
2023-01-18T19:23:30.841Z,100019.06
2023-01-18T19:26:02.169Z,100136.47
2023-01-18T19:28:31.141Z,100088.31
2023-01-18T19:31:07.070Z,100150.63
2023-01-18T19:33:37.014Z,100132.22
2023-01-18T19:36:13.246Z,100095.53
2023-01-18T19:38:46.445Z,99876.63
2023-01-18T19:41:19.225Z,99929.38
2023-01-18T19:43:51.332Z,100159.91
2023-01-18T19:46:21.374Z,100137.25
2023-01-18T19:48:51.505Z,99886.97
2023-01-18T19:51:22.869Z,100019.06
2023-01-18T19:53:53.681Z,100166.78
2023-01-18T19:56:28.287Z,100158.38
2023-01-18T19:58:57.499Z,99962.16
2023-01-18T20:01:36.260Z,100179.78
2023-01-18T20:04:07.069Z,100163.91
2023-01-18T20:06:39.803Z,100078.69
2023-01-18T20:09:18.961Z,100186.75
2023-01-18T20:11:52.133Z,100200.28
2023-01-18T20:14:26.266Z,100108.69
2023-01-18T20:17:00.698Z,100184.28
2023-01-18T20:19:30.717Z,100205.78
2023-01-18T20:22:04.847Z,100221.75
2023-01-18T20:24:34.923Z,100209.06
2023-01-18T20:27:15.800Z,100170.91
2023-01-18T20:29:46.716Z,100214.34
2023-01-18T20:32:18.504Z,100037.16
2023-01-18T20:34:48.911Z,100113.03
2023-01-18T20:37:18.282Z,100190.22
2023-01-18T20:39:50.426Z,100084.38
2023-01-18T20:42:20.845Z,99995.03
2023-01-18T20:44:54.000Z,100134.25
2023-01-18T20:47:23.861Z,100230.34
2023-01-18T20:49:53.855Z,100192.97
2023-01-18T20:52:26.967Z,100234.94
2023-01-18T20:54:57.262Z,100242.84
2023-01-18T20:57:31.723Z,100217.78
2023-01-18T21:00:01.872Z,100015.59
2023-01-18T21:02:32.901Z,100220.72
2023-01-18T21:05:02.016Z,100216.81
2023-01-18T21:07:32.953Z,100185.41
2023-01-18T21:10:01.944Z,100125.31
2023-01-18T21:12:36.278Z,100257.78
2023-01-18T21:15:09.329Z,100255.03
2023-01-18T21:17:39.914Z,100041.81
2023-01-18T21:20:10.127Z,100116.03
2023-01-18T21:22:41.422Z,100169.59
2023-01-18T21:25:11.824Z,100056.25
2023-01-18T21:27:44.428Z,100220.75
2023-01-18T21:30:15.736Z,100020.09
2023-01-18T21:32:45.183Z,100250.22
2023-01-18T21:35:15.507Z,100245.78
2023-01-18T21:37:47.186Z,100187.84
2023-01-18T21:40:17.331Z,100263.72
2023-01-18T21:43:13.760Z,100266.84
2023-01-18T21:45:58.498Z,100149.00
2023-01-18T21:48:30.725Z,100282.69
2023-01-18T21:51:19.399Z,100285.28
2023-01-18T21:54:06.642Z,100282.09
2023-01-18T21:56:38.857Z,100288.63
2023-01-18T21:59:12.147Z,100298.72
2023-01-18T22:01:44.533Z,100288.25
2023-01-18T22:04:33.875Z,100106.84
2023-01-18T22:07:07.706Z,100147.69
2023-01-18T22:09:39.317Z,100154.94
2023-01-18T22:12:15.236Z,100292.56
2023-01-18T22:14:45.883Z,100296.91
2023-01-18T22:17:22.370Z,100182.91
2023-01-18T22:19:52.295Z,100305.78
2023-01-18T22:22:23.207Z,100270.00
2023-01-18T22:24:53.196Z,100227.44
2023-01-18T22:27:23.093Z,100305.69
2023-01-18T22:29:54.700Z,100103.84
2023-01-18T22:32:25.267Z,100214.69
2023-01-18T22:34:55.319Z,100145.56
2023-01-18T22:37:27.971Z,100117.53
2023-01-18T22:39:57.975Z,100288.66
2023-01-18T22:42:29.082Z,100261.31
2023-01-18T22:45:00.605Z,100304.28
2023-01-18T22:47:31.981Z,100305.38
2023-01-18T22:50:09.369Z,100309.97
2023-01-18T22:52:39.374Z,100309.13
2023-01-18T22:55:16.141Z,100288.09
2023-01-18T22:57:45.185Z,100302.09
2023-01-18T23:00:19.686Z,100323.03
2023-01-18T23:02:49.831Z,100312.84
2023-01-18T23:05:19.832Z,100319.91
2023-01-18T23:07:49.753Z,100318.38
2023-01-18T23:10:18.683Z,100249.59
2023-01-18T23:12:49.169Z,100302.31
2023-01-18T23:15:42.743Z,99974.88
2023-01-18T23:18:19.727Z,100331.53
2023-01-18T23:20:59.056Z,100189.00
2023-01-18T23:23:33.596Z,100312.56
2023-01-18T23:26:03.806Z,100312.91
2023-01-18T23:28:42.656Z,100214.31
2023-01-18T23:31:14.910Z,100174.22
2023-01-18T23:33:44.974Z,100322.84
2023-01-18T23:36:15.889Z,100187.31
2023-01-18T23:39:09.336Z,100341.13
2023-01-18T23:41:56.389Z,100184.69
2023-01-18T23:44:44.048Z,100262.72
2023-01-18T23:47:34.192Z,100189.19
2023-01-18T23:50:22.198Z,100347.41
2023-01-18T23:53:09.333Z,100352.41
2023-01-18T23:55:44.541Z,100307.03
2023-01-18T23:58:14.547Z,100256.13
